Aérodrome :
LOGIN :

S'inscrire | Disclaimer

   EN    FR    IT 

 










Légende :    VFR   VFR Marginal   IFR   IFR Intensif   IFR Très Intensif
Visi : 
Plafond : 
>= 8 km
>= 3000ft
5 à 8 km
1000 à 3000 ft
1500m à 5 km
500 à 1000 ft
800 à 1500m
200 à 500 ft
< 800m
< 200 ft
Symboles :   Orages  Brouillard  Fortes neiges  Fortes précipitations  Vent > 20 kt
SIGMETs :   Divers  Orages  Givrage  Turbulence  Onde Orograph.  Cendres Volcan.







- Altitude de l'aérodrome : 375 ft
- Code IATA : MST


EHBK - Maastricht Aachen

DERNIER METAR :
  • 192255Z AUTO 17009KT 9999 NSC 17/11 Q1008

METARs EXPIRÉS :
  • 192225Z AUTO 16009KT 9999 NSC 17/11 Q1008
  • 192155Z AUTO 15007KT 9999 NSC 17/11 Q1008
  • 192125Z AUTO 15007KT 9999 NSC 17/11 Q1008
  • 192055Z AUTO 16007KT 9999 NSC 17/12 Q1009 NOSIG
  • 192025Z AUTO 15005KT 9999 NSC 17/12 Q1009 NOSIG

TAF TAF EHBK
Valide du 19 à 18h jusqu'au 21 à 00h UTC


191652Z 1918/2024 17007KT CAVOK
BECMG 2003/2006 20012KT
TEMPO 2003/2009 5000 RA -SHRA SCT015TCU BKN020
BECMG 2006/2009 23015G25KT
BECMG 2015/2018 23010KT
Pas de NOTAMs connus pour ce terrain.



MET'MAP, la Météo Aéronautique d'un coup d'oeil ! - Copyright ORBIFLY Décembre 2007 - Disclaimer

ORBIFLY MET'MAP TEAM :

Programmation & Développement : Alexandra Zaïnal
Conception & Développement : Baudouin d'Aumeries
Co-Programmation & Développement : Marc-Olivier Méhu
Soutien technique & logistique : Manuel Goepfert

Contact : metmap@orbifly.com




SOURCES & CREDITS :

   NOAA